sensor_id;sensor_type;location;lat;lon;timestamp;P1;durP1;ratioP1;P2;durP2;ratioP2
15096;SDS011;7649;52.084;7.478;2022-07-29T00:00:40;2.92;;;1.30;;
15096;SDS011;7649;52.084;7.478;2022-07-29T00:03:10;2.55;;;1.45;;
15096;SDS011;7649;52.084;7.478;2022-07-29T00:05:39;1.48;;;1.38;;
15096;SDS011;7649;52.084;7.478;2022-07-29T00:08:08;4.30;;;1.40;;
15096;SDS011;7649;52.084;7.478;2022-07-29T00:10:39;6.95;;;1.83;;
15096;SDS011;7649;52.084;7.478;2022-07-29T00:13:07;2.95;;;1.30;;
15096;SDS011;7649;52.084;7.478;2022-07-29T00:15:36;6.25;;;1.90;;
15096;SDS011;7649;52.084;7.478;2022-07-29T00:18:04;3.92;;;1.45;;
15096;SDS011;7649;52.084;7.478;2022-07-29T00:20:33;4.60;;;1.73;;
15096;SDS011;7649;52.084;7.478;2022-07-29T00:23:01;2.00;;;1.23;;
15096;SDS011;7649;52.084;7.478;2022-07-29T00:25:29;1.73;;;1.35;;
15096;SDS011;7649;52.084;7.478;2022-07-29T00:28:00;3.10;;;1.10;;
15096;SDS011;7649;52.084;7.478;2022-07-29T00:30:30;3.08;;;1.40;;
15096;SDS011;7649;52.084;7.478;2022-07-29T00:32:59;2.20;;;1.40;;
15096;SDS011;7649;52.084;7.478;2022-07-29T00:35:27;4.10;;;1.55;;
15096;SDS011;7649;52.084;7.478;2022-07-29T00:38:10;1.85;;;1.30;;
15096;SDS011;7649;52.084;7.478;2022-07-29T00:40:38;1.45;;;1.25;;
15096;SDS011;7649;52.084;7.478;2022-07-29T00:43:11;3.03;;;1.33;;
15096;SDS011;7649;52.084;7.478;2022-07-29T00:45:39;2.20;;;1.60;;
15096;SDS011;7649;52.084;7.478;2022-07-29T00:48:08;3.50;;;1.63;;
15096;SDS011;7649;52.084;7.478;2022-07-29T00:50:36;4.03;;;1.75;;
15096;SDS011;7649;52.084;7.478;2022-07-29T00:53:05;3.20;;;1.63;;
15096;SDS011;7649;52.084;7.478;2022-07-29T00:55:34;2.78;;;1.75;;
15096;SDS011;7649;52.084;7.478;2022-07-29T00:58:02;4.10;;;1.88;;
15096;SDS011;7649;52.084;7.478;2022-07-29T01:00:32;4.30;;;1.80;;
15096;SDS011;7649;52.084;7.478;2022-07-29T01:03:00;4.90;;;1.70;;
15096;SDS011;7649;52.084;7.478;2022-07-29T01:05:30;2.63;;;1.55;;
15096;SDS011;7649;52.084;7.478;2022-07-29T01:08:16;4.13;;;1.50;;
15096;SDS011;7649;52.084;7.478;2022-07-29T01:10:45;1.75;;;1.50;;
15096;SDS011;7649;52.084;7.478;2022-07-29T01:13:14;1.48;;;1.35;;
15096;SDS011;7649;52.084;7.478;2022-07-29T01:15:45;2.75;;;1.63;;
15096;SDS011;7649;52.084;7.478;2022-07-29T01:18:16;1.60;;;1.50;;
15096;SDS011;7649;52.084;7.478;2022-07-29T01:21:03;1.80;;;1.55;;
15096;SDS011;7649;52.084;7.478;2022-07-29T01:26:27;4.32;;;1.85;;
15096;SDS011;7649;52.084;7.478;2022-07-29T01:29:08;2.50;;;1.45;;
15096;SDS011;7649;52.084;7.478;2022-07-29T01:31:42;2.80;;;1.48;;
15096;SDS011;7649;52.084;7.478;2022-07-29T01:34:27;2.67;;;1.73;;
15096;SDS011;7649;52.084;7.478;2022-07-29T01:37:00;4.57;;;1.70;;
15096;SDS011;7649;52.084;7.478;2022-07-29T01:39:30;2.70;;;1.83;;
15096;SDS011;7649;52.084;7.478;2022-07-29T01:42:01;5.87;;;1.90;;
15096;SDS011;7649;52.084;7.478;2022-07-29T01:44:36;3.53;;;1.80;;
15096;SDS011;7649;52.084;7.478;2022-07-29T01:47:08;2.40;;;1.58;;
15096;SDS011;7649;52.084;7.478;2022-07-29T01:49:39;3.97;;;1.73;;
15096;SDS011;7649;52.084;7.478;2022-07-29T01:52:11;2.47;;;1.65;;
15096;SDS011;7649;52.084;7.478;2022-07-29T01:54:45;2.63;;;1.70;;
15096;SDS011;7649;52.084;7.478;2022-07-29T01:57:15;3.08;;;1.70;;
15096;SDS011;7649;52.084;7.478;2022-07-29T01:59:46;2.97;;;1.83;;
15096;SDS011;7649;52.084;7.478;2022-07-29T02:02:15;1.73;;;1.13;;
15096;SDS011;7649;52.084;7.478;2022-07-29T02:04:44;2.17;;;1.50;;
15096;SDS011;7649;52.084;7.478;2022-07-29T02:07:15;4.20;;;1.50;;
15096;SDS011;7649;52.084;7.478;2022-07-29T02:09:44;3.25;;;1.73;;
15096;SDS011;7649;52.084;7.478;2022-07-29T02:12:14;3.17;;;1.58;;
15096;SDS011;7649;52.084;7.478;2022-07-29T02:14:43;2.53;;;1.85;;
15096;SDS011;7649;52.084;7.478;2022-07-29T02:17:14;1.92;;;1.70;;
15096;SDS011;7649;52.084;7.478;2022-07-29T02:19:45;2.75;;;1.48;;
15096;SDS011;7649;52.084;7.478;2022-07-29T02:22:14;8.83;;;2.40;;
15096;SDS011;7649;52.084;7.478;2022-07-29T02:24:43;2.67;;;1.80;;
15096;SDS011;7649;52.084;7.478;2022-07-29T02:27:12;3.40;;;1.60;;
15096;SDS011;7649;52.084;7.478;2022-07-29T02:29:42;2.30;;;1.40;;
15096;SDS011;7649;52.084;7.478;2022-07-29T02:32:11;3.60;;;1.90;;
15096;SDS011;7649;52.084;7.478;2022-07-29T02:34:43;3.20;;;1.60;;
15096;SDS011;7649;52.084;7.478;2022-07-29T02:37:11;1.65;;;1.45;;
15096;SDS011;7649;52.084;7.478;2022-07-29T02:39:40;3.17;;;1.80;;
15096;SDS011;7649;52.084;7.478;2022-07-29T02:42:11;2.85;;;1.63;;
15096;SDS011;7649;52.084;7.478;2022-07-29T02:44:39;4.30;;;1.80;;
15096;SDS011;7649;52.084;7.478;2022-07-29T02:47:10;3.00;;;1.50;;
15096;SDS011;7649;52.084;7.478;2022-07-29T02:49:46;5.17;;;1.70;;
15096;SDS011;7649;52.084;7.478;2022-07-29T02:52:18;3.60;;;1.80;;
15096;SDS011;7649;52.084;7.478;2022-07-29T02:54:49;2.53;;;1.67;;
15096;SDS011;7649;52.084;7.478;2022-07-29T02:57:20;6.47;;;1.87;;
15096;SDS011;7649;52.084;7.478;2022-07-29T02:59:49;2.90;;;1.63;;
15096;SDS011;7649;52.084;7.478;2022-07-29T03:02:19;2.50;;;1.73;;
15096;SDS011;7649;52.084;7.478;2022-07-29T03:04:50;4.33;;;1.80;;
15096;SDS011;7649;52.084;7.478;2022-07-29T03:07:19;6.37;;;2.00;;
15096;SDS011;7649;52.084;7.478;2022-07-29T03:09:48;1.87;;;1.70;;
15096;SDS011;7649;52.084;7.478;2022-07-29T03:12:17;4.37;;;1.50;;
15096;SDS011;7649;52.084;7.478;2022-07-29T03:14:46;2.97;;;1.60;;
15096;SDS011;7649;52.084;7.478;2022-07-29T03:17:14;3.40;;;1.90;;
15096;SDS011;7649;52.084;7.478;2022-07-29T03:19:43;4.57;;;2.07;;
15096;SDS011;7649;52.084;7.478;2022-07-29T03:22:13;3.43;;;1.60;;
15096;SDS011;7649;52.084;7.478;2022-07-29T03:24:44;3.73;;;1.53;;
15096;SDS011;7649;52.084;7.478;2022-07-29T03:27:12;4.13;;;2.07;;
15096;SDS011;7649;52.084;7.478;2022-07-29T03:29:41;2.47;;;1.70;;
15096;SDS011;7649;52.084;7.478;2022-07-29T03:32:15;4.33;;;1.70;;
15096;SDS011;7649;52.084;7.478;2022-07-29T03:34:50;3.97;;;1.90;;
15096;SDS011;7649;52.084;7.478;2022-07-29T03:37:20;2.83;;;2.00;;
15096;SDS011;7649;52.084;7.478;2022-07-29T03:39:48;3.00;;;2.20;;
15096;SDS011;7649;52.084;7.478;2022-07-29T03:42:18;2.20;;;1.80;;
15096;SDS011;7649;52.084;7.478;2022-07-29T03:44:47;3.40;;;1.90;;
15096;SDS011;7649;52.084;7.478;2022-07-29T03:47:17;3.73;;;2.10;;
15096;SDS011;7649;52.084;7.478;2022-07-29T03:49:48;6.13;;;2.20;;
15096;SDS011;7649;52.084;7.478;2022-07-29T03:52:17;2.20;;;2.00;;
15096;SDS011;7649;52.084;7.478;2022-07-29T03:54:47;5.83;;;2.30;;
15096;SDS011;7649;52.084;7.478;2022-07-29T03:57:16;8.87;;;2.60;;
15096;SDS011;7649;52.084;7.478;2022-07-29T03:59:48;5.87;;;1.80;;
15096;SDS011;7649;52.084;7.478;2022-07-29T04:02:34;3.93;;;2.00;;
15096;SDS011;7649;52.084;7.478;2022-07-29T04:05:34;4.67;;;1.90;;
15096;SDS011;7649;52.084;7.478;2022-07-29T04:08:04;10.77;;;3.17;;
15096;SDS011;7649;52.084;7.478;2022-07-29T04:10:36;10.23;;;3.23;;
15096;SDS011;7649;52.084;7.478;2022-07-29T04:13:05;4.20;;;2.30;;
15096;SDS011;7649;52.084;7.478;2022-07-29T04:15:36;5.07;;;2.43;;
15096;SDS011;7649;52.084;7.478;2022-07-29T04:18:04;4.10;;;2.03;;
15096;SDS011;7649;52.084;7.478;2022-07-29T04:20:33;6.00;;;1.83;;
15096;SDS011;7649;52.084;7.478;2022-07-29T04:23:01;3.33;;;1.93;;
15096;SDS011;7649;52.084;7.478;2022-07-29T04:25:29;2.90;;;2.03;;
15096;SDS011;7649;52.084;7.478;2022-07-29T04:27:59;2.87;;;2.17;;
15096;SDS011;7649;52.084;7.478;2022-07-29T04:30:27;4.27;;;1.93;;
15096;SDS011;7649;52.084;7.478;2022-07-29T04:32:56;4.47;;;2.00;;
15096;SDS011;7649;52.084;7.478;2022-07-29T04:35:25;5.10;;;2.10;;
15096;SDS011;7649;52.084;7.478;2022-07-29T04:37:53;2.63;;;2.00;;
15096;SDS011;7649;52.084;7.478;2022-07-29T04:40:21;3.60;;;1.97;;
15096;SDS011;7649;52.084;7.478;2022-07-29T04:42:50;3.83;;;2.10;;
15096;SDS011;7649;52.084;7.478;2022-07-29T04:45:21;3.93;;;2.23;;
15096;SDS011;7649;52.084;7.478;2022-07-29T04:47:49;2.70;;;1.90;;
15096;SDS011;7649;52.084;7.478;2022-07-29T04:50:18;8.10;;;2.50;;
15096;SDS011;7649;52.084;7.478;2022-07-29T04:52:46;4.20;;;1.90;;
15096;SDS011;7649;52.084;7.478;2022-07-29T04:55:14;4.67;;;2.37;;
15096;SDS011;7649;52.084;7.478;2022-07-29T04:57:42;4.20;;;2.13;;
15096;SDS011;7649;52.084;7.478;2022-07-29T05:00:11;7.17;;;2.57;;
15096;SDS011;7649;52.084;7.478;2022-07-29T05:02:41;3.73;;;2.40;;
15096;SDS011;7649;52.084;7.478;2022-07-29T05:05:09;3.33;;;2.00;;
15096;SDS011;7649;52.084;7.478;2022-07-29T05:07:40;3.77;;;2.00;;
15096;SDS011;7649;52.084;7.478;2022-07-29T05:10:08;6.33;;;2.30;;
15096;SDS011;7649;52.084;7.478;2022-07-29T05:12:37;8.70;;;2.33;;
15096;SDS011;7649;52.084;7.478;2022-07-29T05:15:06;3.30;;;1.73;;
15096;SDS011;7649;52.084;7.478;2022-07-29T05:17:34;4.03;;;2.20;;
15096;SDS011;7649;52.084;7.478;2022-07-29T05:20:05;8.97;;;2.17;;
15096;SDS011;7649;52.084;7.478;2022-07-29T05:22:33;3.87;;;2.20;;
15096;SDS011;7649;52.084;7.478;2022-07-29T05:25:02;5.10;;;2.40;;
15096;SDS011;7649;52.084;7.478;2022-07-29T05:27:34;6.27;;;2.67;;
15096;SDS011;7649;52.084;7.478;2022-07-29T05:30:03;5.57;;;2.00;;
15096;SDS011;7649;52.084;7.478;2022-07-29T05:32:31;4.65;;;2.72;;
15096;SDS011;7649;52.084;7.478;2022-07-29T05:35:00;3.37;;;2.37;;
15096;SDS011;7649;52.084;7.478;2022-07-29T05:37:29;4.23;;;2.20;;
15096;SDS011;7649;52.084;7.478;2022-07-29T05:39:58;5.33;;;2.17;;
15096;SDS011;7649;52.084;7.478;2022-07-29T05:42:27;5.67;;;2.50;;
15096;SDS011;7649;52.084;7.478;2022-07-29T05:44:55;8.63;;;2.77;;
15096;SDS011;7649;52.084;7.478;2022-07-29T05:47:24;4.40;;;2.33;;
15096;SDS011;7649;52.084;7.478;2022-07-29T05:49:52;12.67;;;3.00;;
15096;SDS011;7649;52.084;7.478;2022-07-29T05:52:21;4.70;;;2.50;;
15096;SDS011;7649;52.084;7.478;2022-07-29T05:54:50;6.10;;;2.33;;
15096;SDS011;7649;52.084;7.478;2022-07-29T05:57:19;5.63;;;2.30;;
15096;SDS011;7649;52.084;7.478;2022-07-29T05:59:48;2.97;;;2.27;;
15096;SDS011;7649;52.084;7.478;2022-07-29T06:02:17;4.97;;;2.47;;
15096;SDS011;7649;52.084;7.478;2022-07-29T06:04:45;2.93;;;2.10;;
15096;SDS011;7649;52.084;7.478;2022-07-29T06:07:14;4.53;;;2.30;;
15096;SDS011;7649;52.084;7.478;2022-07-29T06:09:43;4.10;;;2.30;;
15096;SDS011;7649;52.084;7.478;2022-07-29T06:12:13;3.57;;;2.10;;
15096;SDS011;7649;52.084;7.478;2022-07-29T06:14:42;3.33;;;2.17;;
15096;SDS011;7649;52.084;7.478;2022-07-29T06:17:11;2.80;;;2.00;;
15096;SDS011;7649;52.084;7.478;2022-07-29T06:19:39;4.77;;;2.33;;
15096;SDS011;7649;52.084;7.478;2022-07-29T06:22:07;3.97;;;2.17;;
15096;SDS011;7649;52.084;7.478;2022-07-29T06:24:36;8.13;;;2.50;;
15096;SDS011;7649;52.084;7.478;2022-07-29T06:27:07;4.00;;;1.97;;
15096;SDS011;7649;52.084;7.478;2022-07-29T06:29:37;2.90;;;2.10;;
15096;SDS011;7649;52.084;7.478;2022-07-29T06:32:05;3.70;;;2.03;;
15096;SDS011;7649;52.084;7.478;2022-07-29T06:34:35;5.27;;;2.37;;
15096;SDS011;7649;52.084;7.478;2022-07-29T06:37:06;4.03;;;1.97;;
15096;SDS011;7649;52.084;7.478;2022-07-29T06:39:40;6.03;;;2.47;;
15096;SDS011;7649;52.084;7.478;2022-07-29T06:42:09;3.83;;;2.13;;
15096;SDS011;7649;52.084;7.478;2022-07-29T06:44:38;3.73;;;2.50;;
15096;SDS011;7649;52.084;7.478;2022-07-29T06:47:07;5.80;;;2.33;;
15096;SDS011;7649;52.084;7.478;2022-07-29T06:49:36;4.50;;;2.47;;
15096;SDS011;7649;52.084;7.478;2022-07-29T06:52:04;5.70;;;2.23;;
15096;SDS011;7649;52.084;7.478;2022-07-29T06:54:33;4.70;;;2.17;;
15096;SDS011;7649;52.084;7.478;2022-07-29T06:57:01;4.37;;;2.20;;
15096;SDS011;7649;52.084;7.478;2022-07-29T06:59:29;5.17;;;2.20;;
15096;SDS011;7649;52.084;7.478;2022-07-29T07:02:02;5.37;;;2.53;;
15096;SDS011;7649;52.084;7.478;2022-07-29T07:04:31;5.73;;;2.27;;
15096;SDS011;7649;52.084;7.478;2022-07-29T07:07:00;3.63;;;2.15;;
15096;SDS011;7649;52.084;7.478;2022-07-29T07:09:28;4.63;;;2.30;;
15096;SDS011;7649;52.084;7.478;2022-07-29T07:12:06;4.57;;;2.45;;
15096;SDS011;7649;52.084;7.478;2022-07-29T07:14:34;5.13;;;2.72;;
15096;SDS011;7649;52.084;7.478;2022-07-29T07:17:04;8.05;;;2.72;;
15096;SDS011;7649;52.084;7.478;2022-07-29T07:19:33;10.07;;;3.42;;
15096;SDS011;7649;52.084;7.478;2022-07-29T07:22:01;7.07;;;2.58;;
15096;SDS011;7649;52.084;7.478;2022-07-29T07:24:30;5.88;;;2.47;;
15096;SDS011;7649;52.084;7.478;2022-07-29T07:26:58;4.40;;;2.58;;
15096;SDS011;7649;52.084;7.478;2022-07-29T07:29:27;6.13;;;2.20;;
15096;SDS011;7649;52.084;7.478;2022-07-29T07:31:55;10.43;;;2.53;;
15096;SDS011;7649;52.084;7.478;2022-07-29T07:34:28;10.20;;;2.50;;
15096;SDS011;7649;52.084;7.478;2022-07-29T07:36:56;3.58;;;2.20;;
15096;SDS011;7649;52.084;7.478;2022-07-29T07:39:25;4.10;;;2.20;;
15096;SDS011;7649;52.084;7.478;2022-07-29T07:41:53;10.13;;;3.30;;
15096;SDS011;7649;52.084;7.478;2022-07-29T07:44:21;4.47;;;2.77;;
15096;SDS011;7649;52.084;7.478;2022-07-29T07:46:50;6.85;;;2.50;;
15096;SDS011;7649;52.084;7.478;2022-07-29T07:49:19;6.73;;;2.60;;
15096;SDS011;7649;52.084;7.478;2022-07-29T07:51:49;4.63;;;2.40;;
15096;SDS011;7649;52.084;7.478;2022-07-29T07:54:18;4.57;;;2.38;;
15096;SDS011;7649;52.084;7.478;2022-07-29T07:56:47;5.10;;;2.35;;
15096;SDS011;7649;52.084;7.478;2022-07-29T07:59:18;6.07;;;2.50;;
15096;SDS011;7649;52.084;7.478;2022-07-29T08:01:47;7.82;;;2.90;;
15096;SDS011;7649;52.084;7.478;2022-07-29T08:04:21;6.43;;;2.83;;
15096;SDS011;7649;52.084;7.478;2022-07-29T08:06:55;5.40;;;2.33;;
15096;SDS011;7649;52.084;7.478;2022-07-29T08:09:24;3.58;;;2.38;;
15096;SDS011;7649;52.084;7.478;2022-07-29T08:11:55;7.13;;;2.87;;
15096;SDS011;7649;52.084;7.478;2022-07-29T08:14:24;5.70;;;2.55;;
15096;SDS011;7649;52.084;7.478;2022-07-29T08:16:53;4.20;;;2.55;;
15096;SDS011;7649;52.084;7.478;2022-07-29T08:19:21;7.07;;;2.70;;
15096;SDS011;7649;52.084;7.478;2022-07-29T08:21:49;6.68;;;2.90;;
15096;SDS011;7649;52.084;7.478;2022-07-29T08:24:21;5.00;;;2.65;;
15096;SDS011;7649;52.084;7.478;2022-07-29T08:27:07;6.80;;;2.40;;
15096;SDS011;7649;52.084;7.478;2022-07-29T08:29:56;10.27;;;2.97;;
15096;SDS011;7649;52.084;7.478;2022-07-29T08:32:24;8.07;;;2.65;;
15096;SDS011;7649;52.084;7.478;2022-07-29T08:35:14;4.28;;;2.78;;
15096;SDS011;7649;52.084;7.478;2022-07-29T08:37:42;4.25;;;2.92;;
15096;SDS011;7649;52.084;7.478;2022-07-29T08:40:12;7.25;;;2.83;;
15096;SDS011;7649;52.084;7.478;2022-07-29T08:42:41;4.20;;;2.93;;
15096;SDS011;7649;52.084;7.478;2022-07-29T08:45:10;6.57;;;3.20;;
15096;SDS011;7649;52.084;7.478;2022-07-29T08:47:38;4.43;;;2.38;;
15096;SDS011;7649;52.084;7.478;2022-07-29T08:50:07;6.10;;;3.03;;
15096;SDS011;7649;52.084;7.478;2022-07-29T08:52:36;5.90;;;3.10;;
15096;SDS011;7649;52.084;7.478;2022-07-29T08:55:05;8.35;;;2.88;;
15096;SDS011;7649;52.084;7.478;2022-07-29T08:57:35;6.55;;;2.80;;
15096;SDS011;7649;52.084;7.478;2022-07-29T09:00:14;5.05;;;3.22;;
15096;SDS011;7649;52.084;7.478;2022-07-29T09:02:44;6.03;;;2.60;;
15096;SDS011;7649;52.084;7.478;2022-07-29T09:05:13;11.00;;;3.65;;
15096;SDS011;7649;52.084;7.478;2022-07-29T09:07:41;7.30;;;3.10;;
15096;SDS011;7649;52.084;7.478;2022-07-29T09:10:13;8.68;;;2.92;;
15096;SDS011;7649;52.084;7.478;2022-07-29T09:12:43;8.00;;;3.15;;
15096;SDS011;7649;52.084;7.478;2022-07-29T09:15:11;4.53;;;2.72;;
15096;SDS011;7649;52.084;7.478;2022-07-29T09:17:40;5.15;;;2.60;;
15096;SDS011;7649;52.084;7.478;2022-07-29T09:20:09;6.07;;;2.65;;
15096;SDS011;7649;52.084;7.478;2022-07-29T09:22:38;7.72;;;3.03;;
15096;SDS011;7649;52.084;7.478;2022-07-29T09:25:07;6.03;;;2.83;;
15096;SDS011;7649;52.084;7.478;2022-07-29T09:27:36;4.75;;;3.33;;
15096;SDS011;7649;52.084;7.478;2022-07-29T09:30:08;8.35;;;3.25;;
15096;SDS011;7649;52.084;7.478;2022-07-29T09:35:21;8.40;;;3.08;;
15096;SDS011;7649;52.084;7.478;2022-07-29T09:37:50;5.68;;;2.75;;
15096;SDS011;7649;52.084;7.478;2022-07-29T09:40:20;5.97;;;3.05;;
15096;SDS011;7649;52.084;7.478;2022-07-29T09:42:48;5.63;;;2.95;;
15096;SDS011;7649;52.084;7.478;2022-07-29T09:45:27;8.10;;;3.33;;
15096;SDS011;7649;52.084;7.478;2022-07-29T09:47:56;4.72;;;3.33;;
15096;SDS011;7649;52.084;7.478;2022-07-29T09:50:36;6.25;;;3.22;;
15096;SDS011;7649;52.084;7.478;2022-07-29T09:53:04;6.90;;;3.30;;
15096;SDS011;7649;52.084;7.478;2022-07-29T09:55:32;7.53;;;3.28;;
15096;SDS011;7649;52.084;7.478;2022-07-29T09:58:17;5.78;;;3.20;;
15096;SDS011;7649;52.084;7.478;2022-07-29T10:00:47;6.95;;;3.33;;
15096;SDS011;7649;52.084;7.478;2022-07-29T10:03:16;5.80;;;3.53;;
15096;SDS011;7649;52.084;7.478;2022-07-29T10:05:45;6.63;;;3.55;;
15096;SDS011;7649;52.084;7.478;2022-07-29T10:08:13;4.50;;;3.38;;
15096;SDS011;7649;52.084;7.478;2022-07-29T10:11:03;7.25;;;3.08;;
15096;SDS011;7649;52.084;7.478;2022-07-29T10:13:36;5.32;;;3.17;;
15096;SDS011;7649;52.084;7.478;2022-07-29T10:16:06;8.20;;;3.33;;
15096;SDS011;7649;52.084;7.478;2022-07-29T10:18:34;5.40;;;3.58;;
15096;SDS011;7649;52.084;7.478;2022-07-29T10:21:03;4.25;;;3.85;;
15096;SDS011;7649;52.084;7.478;2022-07-29T10:23:31;10.00;;;3.92;;
15096;SDS011;7649;52.084;7.478;2022-07-29T10:26:12;6.03;;;3.58;;
15096;SDS011;7649;52.084;7.478;2022-07-29T10:28:41;6.15;;;3.58;;
15096;SDS011;7649;52.084;7.478;2022-07-29T10:31:12;4.93;;;3.40;;
15096;SDS011;7649;52.084;7.478;2022-07-29T10:33:47;5.05;;;3.25;;
15096;SDS011;7649;52.084;7.478;2022-07-29T10:36:25;7.38;;;3.60;;
15096;SDS011;7649;52.084;7.478;2022-07-29T10:39:00;7.15;;;3.47;;
15096;SDS011;7649;52.084;7.478;2022-07-29T10:41:36;20.48;;;4.15;;
15096;SDS011;7649;52.084;7.478;2022-07-29T10:44:12;9.32;;;3.30;;
15096;SDS011;7649;52.084;7.478;2022-07-29T10:46:46;9.02;;;3.38;;
15096;SDS011;7649;52.084;7.478;2022-07-29T10:49:15;20.27;;;4.70;;
15096;SDS011;7649;52.084;7.478;2022-07-29T10:51:53;32.28;;;6.93;;
15096;SDS011;7649;52.084;7.478;2022-07-29T10:54:42;12.10;;;3.83;;
15096;SDS011;7649;52.084;7.478;2022-07-29T10:57:15;8.13;;;4.10;;
15096;SDS011;7649;52.084;7.478;2022-07-29T10:59:46;9.32;;;3.55;;
15096;SDS011;7649;52.084;7.478;2022-07-29T11:05:10;7.00;;;3.25;;
15096;SDS011;7649;52.084;7.478;2022-07-29T11:07:40;9.73;;;3.42;;
15096;SDS011;7649;52.084;7.478;2022-07-29T11:10:27;6.80;;;3.72;;
15096;SDS011;7649;52.084;7.478;2022-07-29T11:12:57;12.55;;;3.58;;
15096;SDS011;7649;52.084;7.478;2022-07-29T11:15:26;6.88;;;3.20;;
15096;SDS011;7649;52.084;7.478;2022-07-29T11:18:07;7.88;;;2.88;;
15096;SDS011;7649;52.084;7.478;2022-07-29T11:20:44;11.85;;;3.92;;
15096;SDS011;7649;52.084;7.478;2022-07-29T11:23:33;10.40;;;3.42;;
15096;SDS011;7649;52.084;7.478;2022-07-29T11:26:14;13.05;;;4.00;;
15096;SDS011;7649;52.084;7.478;2022-07-29T11:29:04;7.90;;;3.30;;
15096;SDS011;7649;52.084;7.478;2022-07-29T11:31:35;9.05;;;3.53;;
15096;SDS011;7649;52.084;7.478;2022-07-29T11:34:23;7.95;;;3.30;;
15096;SDS011;7649;52.084;7.478;2022-07-29T11:39:44;5.55;;;3.03;;
15096;SDS011;7649;52.084;7.478;2022-07-29T11:45:11;6.90;;;3.72;;
15096;SDS011;7649;52.084;7.478;2022-07-29T11:47:59;9.52;;;3.40;;
15096;SDS011;7649;52.084;7.478;2022-07-29T11:50:48;7.35;;;2.92;;
15096;SDS011;7649;52.084;7.478;2022-07-29T11:53:16;8.02;;;3.05;;
15096;SDS011;7649;52.084;7.478;2022-07-29T11:55:46;6.43;;;3.00;;
15096;SDS011;7649;52.084;7.478;2022-07-29T11:58:23;6.53;;;3.10;;
15096;SDS011;7649;52.084;7.478;2022-07-29T12:00:52;6.30;;;3.15;;
15096;SDS011;7649;52.084;7.478;2022-07-29T12:03:23;5.30;;;3.03;;
15096;SDS011;7649;52.084;7.478;2022-07-29T12:06:12;6.68;;;3.30;;
15096;SDS011;7649;52.084;7.478;2022-07-29T12:08:43;6.53;;;3.20;;
15096;SDS011;7649;52.084;7.478;2022-07-29T12:11:17;4.55;;;3.10;;
15096;SDS011;7649;52.084;7.478;2022-07-29T12:13:50;5.00;;;3.60;;
15096;SDS011;7649;52.084;7.478;2022-07-29T12:16:18;4.38;;;3.00;;
15096;SDS011;7649;52.084;7.478;2022-07-29T12:18:55;9.50;;;3.55;;
15096;SDS011;7649;52.084;7.478;2022-07-29T12:21:24;6.80;;;3.20;;
15096;SDS011;7649;52.084;7.478;2022-07-29T12:23:54;8.93;;;3.92;;
15096;SDS011;7649;52.084;7.478;2022-07-29T12:26:35;8.32;;;3.95;;
15096;SDS011;7649;52.084;7.478;2022-07-29T12:29:05;9.93;;;3.60;;
15096;SDS011;7649;52.084;7.478;2022-07-29T12:31:40;6.47;;;3.28;;
15096;SDS011;7649;52.084;7.478;2022-07-29T12:34:23;14.55;;;3.58;;
15096;SDS011;7649;52.084;7.478;2022-07-29T12:36:52;9.07;;;3.95;;
15096;SDS011;7649;52.084;7.478;2022-07-29T12:39:21;13.65;;;4.28;;
15096;SDS011;7649;52.084;7.478;2022-07-29T12:41:54;8.98;;;4.03;;
15096;SDS011;7649;52.084;7.478;2022-07-29T12:44:43;10.40;;;3.40;;
15096;SDS011;7649;52.084;7.478;2022-07-29T12:47:11;7.13;;;3.72;;
15096;SDS011;7649;52.084;7.478;2022-07-29T12:49:40;6.95;;;3.42;;
15096;SDS011;7649;52.084;7.478;2022-07-29T12:52:24;7.80;;;3.47;;
15096;SDS011;7649;52.084;7.478;2022-07-29T12:54:52;7.65;;;3.50;;
15096;SDS011;7649;52.084;7.478;2022-07-29T12:57:22;7.13;;;3.65;;
15096;SDS011;7649;52.084;7.478;2022-07-29T13:00:04;6.97;;;3.17;;
15096;SDS011;7649;52.084;7.478;2022-07-29T13:02:34;7.78;;;3.25;;
15096;SDS011;7649;52.084;7.478;2022-07-29T13:05:03;8.43;;;3.53;;
15096;SDS011;7649;52.084;7.478;2022-07-29T13:07:32;11.35;;;3.90;;
15096;SDS011;7649;52.084;7.478;2022-07-29T13:10:22;4.95;;;3.60;;
15096;SDS011;7649;52.084;7.478;2022-07-29T13:13:05;9.82;;;3.50;;
15096;SDS011;7649;52.084;7.478;2022-07-29T13:15:36;5.82;;;3.22;;
15096;SDS011;7649;52.084;7.478;2022-07-29T13:18:05;4.97;;;2.92;;
15096;SDS011;7649;52.084;7.478;2022-07-29T13:20:33;7.13;;;3.47;;
15096;SDS011;7649;52.084;7.478;2022-07-29T13:23:01;5.15;;;3.47;;
15096;SDS011;7649;52.084;7.478;2022-07-29T13:25:30;7.20;;;3.05;;
15096;SDS011;7649;52.084;7.478;2022-07-29T13:27:59;5.45;;;3.30;;
15096;SDS011;7649;52.084;7.478;2022-07-29T13:30:29;9.27;;;3.25;;
15096;SDS011;7649;52.084;7.478;2022-07-29T13:32:57;6.30;;;3.03;;
15096;SDS011;7649;52.084;7.478;2022-07-29T13:35:26;6.63;;;3.25;;
15096;SDS011;7649;52.084;7.478;2022-07-29T13:37:55;8.43;;;3.08;;
15096;SDS011;7649;52.084;7.478;2022-07-29T13:40:24;6.05;;;3.40;;
15096;SDS011;7649;52.084;7.478;2022-07-29T13:42:52;8.23;;;3.60;;
15096;SDS011;7649;52.084;7.478;2022-07-29T13:45:21;5.03;;;3.08;;
15096;SDS011;7649;52.084;7.478;2022-07-29T13:47:52;7.75;;;2.90;;
15096;SDS011;7649;52.084;7.478;2022-07-29T13:50:20;6.78;;;3.30;;
15096;SDS011;7649;52.084;7.478;2022-07-29T13:52:48;7.57;;;3.30;;
15096;SDS011;7649;52.084;7.478;2022-07-29T13:55:17;5.70;;;2.83;;
15096;SDS011;7649;52.084;7.478;2022-07-29T13:57:45;5.10;;;2.88;;
15096;SDS011;7649;52.084;7.478;2022-07-29T14:00:14;7.43;;;3.65;;
15096;SDS011;7649;52.084;7.478;2022-07-29T14:02:42;5.13;;;2.92;;
15096;SDS011;7649;52.084;7.478;2022-07-29T14:05:12;8.18;;;2.60;;
15096;SDS011;7649;52.084;7.478;2022-07-29T14:07:40;11.73;;;4.30;;
15096;SDS011;7649;52.084;7.478;2022-07-29T14:10:09;7.65;;;3.00;;
15096;SDS011;7649;52.084;7.478;2022-07-29T14:12:38;9.32;;;3.10;;
15096;SDS011;7649;52.084;7.478;2022-07-29T14:15:08;6.22;;;3.10;;
15096;SDS011;7649;52.084;7.478;2022-07-29T14:17:36;2.80;;;2.42;;
15096;SDS011;7649;52.084;7.478;2022-07-29T14:20:05;9.05;;;3.25;;
15096;SDS011;7649;52.084;7.478;2022-07-29T14:22:35;6.13;;;2.85;;
15096;SDS011;7649;52.084;7.478;2022-07-29T14:25:10;8.25;;;2.85;;
15096;SDS011;7649;52.084;7.478;2022-07-29T14:27:40;6.82;;;3.13;;
15096;SDS011;7649;52.084;7.478;2022-07-29T14:30:09;7.88;;;2.75;;
15096;SDS011;7649;52.084;7.478;2022-07-29T14:32:38;8.07;;;3.38;;
15096;SDS011;7649;52.084;7.478;2022-07-29T14:35:06;6.00;;;2.97;;
15096;SDS011;7649;52.084;7.478;2022-07-29T14:37:36;4.97;;;3.13;;
15096;SDS011;7649;52.084;7.478;2022-07-29T14:40:06;5.57;;;2.85;;
15096;SDS011;7649;52.084;7.478;2022-07-29T14:42:34;6.57;;;2.90;;
15096;SDS011;7649;52.084;7.478;2022-07-29T14:45:03;4.65;;;2.75;;
15096;SDS011;7649;52.084;7.478;2022-07-29T14:47:33;5.00;;;2.50;;
15096;SDS011;7649;52.084;7.478;2022-07-29T14:50:01;5.93;;;2.72;;
15096;SDS011;7649;52.084;7.478;2022-07-29T14:52:30;4.85;;;3.47;;
15096;SDS011;7649;52.084;7.478;2022-07-29T14:55:00;8.50;;;2.67;;
15096;SDS011;7649;52.084;7.478;2022-07-29T14:57:28;6.55;;;2.60;;
15096;SDS011;7649;52.084;7.478;2022-07-29T14:59:57;7.78;;;2.92;;
15096;SDS011;7649;52.084;7.478;2022-07-29T15:02:26;5.75;;;2.67;;
15096;SDS011;7649;52.084;7.478;2022-07-29T15:05:14;6.45;;;2.70;;
15096;SDS011;7649;52.084;7.478;2022-07-29T15:07:42;5.10;;;2.50;;
15096;SDS011;7649;52.084;7.478;2022-07-29T15:10:12;7.60;;;3.20;;
15096;SDS011;7649;52.084;7.478;2022-07-29T15:12:41;9.15;;;3.20;;
15096;SDS011;7649;52.084;7.478;2022-07-29T15:15:09;4.03;;;2.50;;
15096;SDS011;7649;52.084;7.478;2022-07-29T15:17:38;5.57;;;3.10;;
15096;SDS011;7649;52.084;7.478;2022-07-29T15:20:07;9.43;;;3.15;;
15096;SDS011;7649;52.084;7.478;2022-07-29T15:22:35;5.30;;;3.10;;
15096;SDS011;7649;52.084;7.478;2022-07-29T15:25:04;4.72;;;2.55;;
15096;SDS011;7649;52.084;7.478;2022-07-29T15:27:34;5.55;;;3.25;;
15096;SDS011;7649;52.084;7.478;2022-07-29T15:30:03;7.95;;;3.63;;
15096;SDS011;7649;52.084;7.478;2022-07-29T15:32:32;6.40;;;3.00;;
15096;SDS011;7649;52.084;7.478;2022-07-29T15:35:00;9.25;;;3.45;;
15096;SDS011;7649;52.084;7.478;2022-07-29T15:37:29;5.10;;;2.67;;